Time;durP1;ratioP1;P1;durP2;ratioP2;P2;SDS_P1;SDS_P2;PMS_P1;PMS_P2;Temp;Humidity;BMP_temperature;BMP_pressure;BME280_temperature;BME280_humidity;BME280_pressure;Samples;Min_cycle;Max_cycle;Signal;HPM_P1;HPM_P2
2022/08/25 00:00:34;;;;;;;;;;;22.10;64.80;;;;;;5030536;28;19928;-76
2022/08/25 00:03:00;;;;;;;;;;;22.10;64.60;;;;;;5044462;28;20038;-76
2022/08/25 00:05:27;;;;;;;;;;;22.10;64.90;;;;;;5047431;28;19917;-76
2022/08/25 00:07:52;;;;;;;;;;;22.10;64.20;;;;;;5049521;28;20274;-76
2022/08/25 00:10:19;;;;;;;;;;;22.00;64.10;;;;;;5037896;28;19917;-76
2022/08/25 00:12:44;;;;;;;;;;;22.00;64.30;;;;;;5045607;28;19920;-76
2022/08/25 00:15:10;;;;;;;;;;;21.90;63.80;;;;;;5048142;28;19917;-76
2022/08/25 00:17:35;;;;;;;;;;;22.00;64.00;;;;;;5031508;28;19919;-76
2022/08/25 00:20:01;;;;;;;;;;;21.90;64.30;;;;;;5050830;28;19913;-77
2022/08/25 00:22:27;;;;;;;;;;;21.80;64.60;;;;;;5046746;28;19919;-75
2022/08/25 00:24:53;;;;;;;;;;;21.80;65.20;;;;;;5048428;28;19917;-77
2022/08/25 00:27:19;;;;;;;;;;;21.80;65.00;;;;;;5046509;28;19912;-76
2022/08/25 00:29:44;;;;;;;;;;;21.80;65.10;;;;;;5046203;28;19921;-76
2022/08/25 00:32:09;;;;;;;;;;;21.80;65.40;;;;;;5046092;28;19924;-77
2022/08/25 00:34:37;;;;;;;;;;;21.70;65.70;;;;;;5049345;28;20435;-76
2022/08/25 00:37:03;;;;;;;;;;;21.70;65.30;;;;;;5046942;28;19920;-77
2022/08/25 00:39:29;;;;;;;;;;;21.60;66.40;;;;;;5049631;28;19920;-76
2022/08/25 00:41:56;;;;;;;;;;;21.70;64.70;;;;;;5030032;28;19913;-76
2022/08/25 00:44:22;;;;;;;;;;;21.60;65.20;;;;;;5049126;28;19923;-77
2022/08/25 00:46:49;;;;;;;;;;;21.60;65.90;;;;;;5047541;28;19924;-76
2022/08/25 00:49:20;;;;;;;;;;;21.60;65.50;;;;;;5048411;28;19924;-76
2022/08/25 00:51:49;;;;;;;;;;;21.60;66.20;;;;;;5029478;28;19975;-76
2022/08/25 00:54:17;;;;;;;;;;;21.60;66.20;;;;;;5031219;28;19936;-76
2022/08/25 00:56:43;;;;;;;;;;;21.60;66.10;;;;;;5045472;28;19912;-77
2022/08/25 00:59:09;;;;;;;;;;;21.50;66.60;;;;;;5047412;28;19920;-77
2022/08/25 01:01:34;;;;;;;;;;;21.50;66.60;;;;;;5047947;28;19920;-77
2022/08/25 01:04:00;;;;;;;;;;;21.50;66.50;;;;;;5043181;28;19928;-76
2022/08/25 01:06:27;;;;;;;;;;;21.40;66.40;;;;;;5023858;28;19917;-76
2022/08/25 01:08:53;;;;;;;;;;;21.40;66.50;;;;;;5046426;28;19913;-76
2022/08/25 01:11:19;;;;;;;;;;;21.40;66.30;;;;;;5048454;28;19917;-76
2022/08/25 01:13:48;;;;;;;;;;;21.40;66.50;;;;;;5045989;28;20365;-76
2022/08/25 01:16:14;;;;;;;;;;;21.30;66.10;;;;;;5044430;28;19970;-77
2022/08/25 01:18:45;;;;;;;;;;;21.30;66.20;;;;;;5042920;28;19913;-76
2022/08/25 01:21:11;;;;;;;;;;;21.20;66.10;;;;;;5080273;22;19932;-83
2022/08/25 01:23:37;;;;;;;;;;;21.30;66.10;;;;;;5056513;28;20406;-83
2022/08/25 01:26:06;;;;;;;;;;;21.20;65.70;;;;;;5052677;28;20021;-83
2022/08/25 01:28:33;;;;;;;;;;;21.20;66.00;;;;;;5069818;28;19919;-83
2022/08/25 01:30:58;;;;;;;;;;;21.20;66.40;;;;;;5052906;28;19921;-84
2022/08/25 01:33:24;;;;;;;;;;;21.20;66.80;;;;;;5077010;28;20351;-83
2022/08/25 01:35:49;;;;;;;;;;;21.10;66.40;;;;;;5051980;28;19913;-83
2022/08/25 01:38:15;;;;;;;;;;;21.10;66.30;;;;;;5046950;28;19916;-84
2022/08/25 01:40:41;;;;;;;;;;;21.20;65.70;;;;;;5055012;28;19913;-83
2022/08/25 01:43:10;;;;;;;;;;;21.20;65.60;;;;;;5045138;28;19917;-84
2022/08/25 01:45:37;;;;;;;;;;;21.10;65.40;;;;;;5057361;28;19959;-84
2022/08/25 01:48:03;;;;;;;;;;;21.10;64.80;;;;;;5068781;28;19948;-83
2022/08/25 01:50:29;;;;;;;;;;;21.10;65.50;;;;;;5057477;28;19916;-83
2022/08/25 01:52:58;;;;;;;;;;;21.10;65.40;;;;;;5056956;28;19913;-83
2022/08/25 01:55:24;;;;;;;;;;;21.10;65.80;;;;;;5050207;28;19957;-83
2022/08/25 01:57:50;;;;;;;;;;;21.10;65.70;;;;;;5065794;28;19951;-83
2022/08/25 02:00:16;;;;;;;;;;;21.10;65.50;;;;;;5053005;28;19916;-83
2022/08/25 02:02:42;;;;;;;;;;;21.00;65.50;;;;;;5060715;28;20414;-83
2022/08/25 02:05:08;;;;;;;;;;;21.00;65.90;;;;;;5060760;28;19951;-83
2022/08/25 02:07:35;;;;;;;;;;;21.00;66.00;;;;;;5070465;28;20007;-83
2022/08/25 02:10:03;;;;;;;;;;;21.10;64.50;;;;;;5073012;28;20417;-83
2022/08/25 02:12:30;;;;;;;;;;;21.00;64.90;;;;;;5070731;28;19920;-84
2022/08/25 02:14:56;;;;;;;;;;;21.00;65.80;;;;;;5075721;28;19923;-83
2022/08/25 02:17:21;;;;;;;;;;;21.00;65.90;;;;;;5046891;28;20409;-83
2022/08/25 02:19:47;;;;;;;;;;;21.00;66.10;;;;;;5062909;28;19955;-83
2022/08/25 02:22:12;;;;;;;;;;;21.00;65.80;;;;;;5048045;28;20409;-83
2022/08/25 02:24:38;;;;;;;;;;;20.90;66.40;;;;;;5062490;28;20303;-83
2022/08/25 02:27:03;;;;;;;;;;;20.80;66.70;;;;;;5054575;28;19912;-83
2022/08/25 02:29:29;;;;;;;;;;;20.80;67.20;;;;;;5064214;28;19920;-83
2022/08/25 02:31:54;;;;;;;;;;;20.80;67.00;;;;;;5064765;28;20371;-83
2022/08/25 02:34:19;;;;;;;;;;;20.80;66.70;;;;;;5051857;28;19912;-83
2022/08/25 02:36:45;;;;;;;;;;;20.80;67.10;;;;;;5063855;28;19912;-84
2022/08/25 02:39:10;;;;;;;;;;;20.70;67.40;;;;;;5051602;28;19919;-83
2022/08/25 02:41:37;;;;;;;;;;;20.70;67.00;;;;;;5052777;28;19916;-84
2022/08/25 02:44:03;;;;;;;;;;;20.60;66.70;;;;;;5067487;28;19986;-83
2022/08/25 02:46:29;;;;;;;;;;;20.60;66.80;;;;;;5048474;28;19916;-83
2022/08/25 02:48:55;;;;;;;;;;;20.60;67.00;;;;;;5069991;28;19912;-84
2022/08/25 02:51:22;;;;;;;;;;;20.60;67.20;;;;;;5055087;28;19986;-83
2022/08/25 02:53:47;;;;;;;;;;;20.60;67.50;;;;;;5049062;28;20413;-84
2022/08/25 02:56:13;;;;;;;;;;;20.60;67.30;;;;;;5066402;28;19917;-83
2022/08/25 02:58:40;;;;;;;;;;;20.60;67.10;;;;;;5063895;28;20007;-83
2022/08/25 03:01:06;;;;;;;;;;;20.50;67.50;;;;;;5053572;28;19912;-83
2022/08/25 03:03:32;;;;;;;;;;;20.50;68.00;;;;;;5065805;28;20518;-83
2022/08/25 03:05:58;;;;;;;;;;;20.50;67.70;;;;;;5044156;28;19912;-83
2022/08/25 03:08:24;;;;;;;;;;;20.50;67.90;;;;;;5051704;28;19913;-83
2022/08/25 03:10:50;;;;;;;;;;;20.40;67.90;;;;;;5067438;28;19921;-83
2022/08/25 03:13:16;;;;;;;;;;;20.40;67.80;;;;;;5054172;28;20291;-83
2022/08/25 03:15:41;;;;;;;;;;;20.40;67.90;;;;;;5069536;28;19979;-83
2022/08/25 03:18:07;;;;;;;;;;;20.40;67.30;;;;;;5051048;28;19920;-83
2022/08/25 03:20:34;;;;;;;;;;;20.40;67.50;;;;;;5049628;28;20451;-82
2022/08/25 03:23:01;;;;;;;;;;;20.40;67.80;;;;;;5049777;28;19916;-83
2022/08/25 03:28:10;;;;;;;;;;;20.30;67.90;;;;;;5071781;28;19919;-83
2022/08/25 03:30:36;;;;;;;;;;;20.20;67.40;;;;;;5049184;28;20208;-83
2022/08/25 03:33:01;;;;;;;;;;;20.20;67.80;;;;;;5076172;28;19966;-83
2022/08/25 03:35:26;;;;;;;;;;;20.30;68.00;;;;;;5053083;28;19966;-83
2022/08/25 03:37:58;;;;;;;;;;;20.30;67.60;;;;;;5063124;28;19923;-83
2022/08/25 03:40:25;;;;;;;;;;;20.30;68.10;;;;;;5071933;28;19913;-83
2022/08/25 03:42:50;;;;;;;;;;;20.20;68.30;;;;;;5073687;28;19934;-82
2022/08/25 03:45:16;;;;;;;;;;;20.10;68.40;;;;;;5053440;28;19924;-83
2022/08/25 03:47:44;;;;;;;;;;;20.20;66.80;;;;;;5066851;28;20039;-83
2022/08/25 03:50:10;;;;;;;;;;;20.10;68.00;;;;;;5053893;28;19920;-83
2022/08/25 03:52:36;;;;;;;;;;;20.00;68.70;;;;;;5057366;28;19912;-83
2022/08/25 03:55:02;;;;;;;;;;;20.00;68.60;;;;;;5072230;28;20394;-83
2022/08/25 03:57:28;;;;;;;;;;;20.00;68.80;;;;;;5068667;28;19912;-83
2022/08/25 03:59:54;;;;;;;;;;;20.00;68.40;;;;;;5070550;28;19935;-83
2022/08/25 04:02:19;;;;;;;;;;;19.90;68.80;;;;;;5054723;28;20403;-83
2022/08/25 04:04:45;;;;;;;;;;;19.90;68.60;;;;;;5070029;28;19938;-83
2022/08/25 04:07:10;;;;;;;;;;;20.00;68.40;;;;;;5047973;28;20445;-82
2022/08/25 04:09:36;;;;;;;;;;;20.00;68.00;;;;;;5050548;28;19916;-83
2022/08/25 04:12:01;;;;;;;;;;;19.90;68.40;;;;;;5048342;28;20394;-83
2022/08/25 04:14:27;;;;;;;;;;;19.90;68.60;;;;;;5066464;28;19912;-83
2022/08/25 04:16:52;;;;;;;;;;;19.90;68.50;;;;;;5067837;28;20340;-83
2022/08/25 04:19:18;;;;;;;;;;;19.90;68.80;;;;;;5068019;28;19933;-82
2022/08/25 04:21:43;;;;;;;;;;;19.90;69.20;;;;;;5054128;28;19931;-83
2022/08/25 04:24:10;;;;;;;;;;;19.90;68.50;;;;;;5047827;28;20371;-84
2022/08/25 04:26:37;;;;;;;;;;;19.90;68.70;;;;;;5071643;28;19991;-81
2022/08/25 04:29:04;;;;;;;;;;;19.80;68.60;;;;;;5062886;28;20255;-80
2022/08/25 04:31:30;;;;;;;;;;;19.80;68.90;;;;;;5059135;28;20009;-81
2022/08/25 04:33:56;;;;;;;;;;;19.80;68.60;;;;;;5049634;28;19940;-81
2022/08/25 04:36:22;;;;;;;;;;;19.80;68.60;;;;;;5068886;28;19939;-81
2022/08/25 04:38:48;;;;;;;;;;;19.80;68.20;;;;;;5044955;28;19917;-81
2022/08/25 04:41:14;;;;;;;;;;;19.80;68.50;;;;;;5071892;28;19970;-81
2022/08/25 04:43:40;;;;;;;;;;;19.70;68.60;;;;;;5072290;28;19920;-82
2022/08/25 04:46:07;;;;;;;;;;;19.70;69.30;;;;;;5052441;28;19908;-83
2022/08/25 04:48:33;;;;;;;;;;;19.70;69.10;;;;;;5048674;28;20368;-81
2022/08/25 04:51:03;;;;;;;;;;;19.70;68.20;;;;;;5065759;28;20271;-82
2022/08/25 04:53:28;;;;;;;;;;;19.70;68.80;;;;;;5033847;28;19939;-82
2022/08/25 04:55:53;;;;;;;;;;;19.70;69.00;;;;;;5049770;28;19934;-80
2022/08/25 04:58:22;;;;;;;;;;;19.70;68.40;;;;;;5063473;28;19975;-84
2022/08/25 05:00:47;;;;;;;;;;;19.70;69.10;;;;;;5068733;28;20387;-81
2022/08/25 05:03:13;;;;;;;;;;;19.60;68.90;;;;;;5066830;28;19919;-81
2022/08/25 05:05:39;;;;;;;;;;;19.60;69.00;;;;;;5065815;28;19921;-81
2022/08/25 05:08:05;;;;;;;;;;;19.80;69.20;;;;;;5053711;28;19916;-81
2022/08/25 05:10:31;;;;;;;;;;;19.80;68.30;;;;;;5054292;28;19909;-81
2022/08/25 05:12:56;;;;;;;;;;;19.80;69.10;;;;;;5051107;28;19924;-81
2022/08/25 05:18:06;;;;;;;;;;;20.00;68.60;;;;;;5072522;28;20019;-82
2022/08/25 05:20:34;;;;;;;;;;;20.00;69.20;;;;;;5054614;28;19978;-82
2022/08/25 05:23:00;;;;;;;;;;;19.90;69.10;;;;;;5047100;28;19916;-86
2022/08/25 05:25:25;;;;;;;;;;;20.00;68.60;;;;;;5046644;28;20367;-82
2022/08/25 05:27:51;;;;;;;;;;;20.10;67.20;;;;;;5050316;28;20370;-82
2022/08/25 05:30:16;;;;;;;;;;;20.10;67.90;;;;;;5070338;28;20371;-82
2022/08/25 05:32:42;;;;;;;;;;;20.20;67.70;;;;;;5051642;28;20465;-82
2022/08/25 05:35:07;;;;;;;;;;;20.10;68.50;;;;;;5068409;28;19913;-82
2022/08/25 05:37:33;;;;;;;;;;;20.10;68.60;;;;;;5053611;28;19920;-82
2022/08/25 05:39:59;;;;;;;;;;;20.20;68.10;;;;;;5053646;28;19995;-82
2022/08/25 05:42:25;;;;;;;;;;;20.20;68.30;;;;;;5052666;28;19923;-82
2022/08/25 05:44:50;;;;;;;;;;;20.30;69.70;;;;;;5069211;28;19917;-84
2022/08/25 05:47:16;;;;;;;;;;;20.30;70.00;;;;;;5050865;28;19913;-84
2022/08/25 05:49:41;;;;;;;;;;;20.30;69.80;;;;;;5071932;28;19958;-85
2022/08/25 05:52:07;;;;;;;;;;;20.40;69.90;;;;;;5070542;28;20147;-84
2022/08/25 05:54:32;;;;;;;;;;;20.40;69.70;;;;;;5042511;28;19917;-81
2022/08/25 05:56:59;;;;;;;;;;;20.60;66.90;;;;;;5050825;28;19943;-82
2022/08/25 05:59:25;;;;;;;;;;;20.60;67.50;;;;;;5055046;28;19920;-81
2022/08/25 06:04:34;;;;;;;;;;;20.70;67.60;;;;;;5075037;28;19931;-80
2022/08/25 06:07:00;;;;;;;;;;;20.70;67.10;;;;;;5064962;28;20371;-80
2022/08/25 06:09:25;;;;;;;;;;;20.70;67.80;;;;;;5081393;28;19924;-80
2022/08/25 06:11:51;;;;;;;;;;;20.80;67.10;;;;;;5056092;28;20268;-80
2022/08/25 06:14:17;;;;;;;;;;;20.80;67.90;;;;;;5043793;28;19924;-81
2022/08/25 06:16:42;;;;;;;;;;;20.80;68.20;;;;;;5051277;28;19944;-80
2022/08/25 06:19:08;;;;;;;;;;;20.80;68.50;;;;;;5046628;28;19913;-81
2022/08/25 06:21:34;;;;;;;;;;;20.90;67.80;;;;;;5053578;28;19920;-81
2022/08/25 06:23:59;;;;;;;;;;;20.90;67.50;;;;;;5064720;28;19930;-81
2022/08/25 06:26:25;;;;;;;;;;;21.00;67.90;;;;;;5070877;28;19969;-80
2022/08/25 06:28:51;;;;;;;;;;;21.00;67.60;;;;;;5051238;28;19916;-81
2022/08/25 06:31:17;;;;;;;;;;;21.00;67.50;;;;;;5072212;28;19996;-80
2022/08/25 06:33:43;;;;;;;;;;;21.10;67.60;;;;;;5052763;28;19918;-80
2022/08/25 06:36:08;;;;;;;;;;;21.10;67.50;;;;;;5060442;28;20325;-80
2022/08/25 06:38:34;;;;;;;;;;;21.20;67.40;;;;;;5051097;28;19916;-80
2022/08/25 06:41:01;;;;;;;;;;;21.20;66.60;;;;;;5061565;28;20326;-80
2022/08/25 06:43:26;;;;;;;;;;;21.20;67.20;;;;;;5069919;28;20264;-82
2022/08/25 06:45:52;;;;;;;;;;;21.30;67.00;;;;;;5056400;28;19919;-81
2022/08/25 06:48:17;;;;;;;;;;;21.30;67.00;;;;;;5054983;28;19912;-82
2022/08/25 06:50:43;;;;;;;;;;;21.40;66.70;;;;;;5053403;28;20295;-81
2022/08/25 06:53:09;;;;;;;;;;;21.50;66.00;;;;;;5070718;28;20377;-82
2022/08/25 06:55:35;;;;;;;;;;;21.60;66.20;;;;;;5048168;28;19946;-81
2022/08/25 06:58:02;;;;;;;;;;;21.60;66.40;;;;;;5059934;28;20338;-81
2022/08/25 07:00:27;;;;;;;;;;;21.80;65.80;;;;;;5047205;28;20330;-81
2022/08/25 07:02:53;;;;;;;;;;;21.90;66.30;;;;;;5066476;28;19913;-82
2022/08/25 07:05:18;;;;;;;;;;;22.20;64.50;;;;;;5065599;28;19924;-79
2022/08/25 07:07:46;;;;;;;;;;;22.30;64.50;;;;;;5046864;28;21243;-80
2022/08/25 07:10:11;;;;;;;;;;;22.30;64.20;;;;;;5062792;28;20017;-80
2022/08/25 07:12:37;;;;;;;;;;;22.50;64.00;;;;;;5067875;28;19919;-80
2022/08/25 07:15:03;;;;;;;;;;;22.30;64.80;;;;;;5049704;28;20232;-80
2022/08/25 07:17:28;;;;;;;;;;;22.40;64.20;;;;;;5050690;28;20007;-80
2022/08/25 07:19:54;;;;;;;;;;;22.50;64.40;;;;;;5051268;28;19999;-80
2022/08/25 07:22:19;;;;;;;;;;;22.50;63.80;;;;;;5046116;28;19989;-81
2022/08/25 07:24:45;;;;;;;;;;;22.80;63.40;;;;;;5064110;28;19970;-80
2022/08/25 07:27:10;;;;;;;;;;;22.70;63.90;;;;;;5048246;28;19912;-80
2022/08/25 07:29:37;;;;;;;;;;;22.70;64.40;;;;;;5042440;28;19999;-80
2022/08/25 07:32:03;;;;;;;;;;;22.80;64.50;;;;;;5049082;28;19921;-80
2022/08/25 07:37:13;;;;;;;;;;;22.90;64.60;;;;;;5066014;28;19923;-81
2022/08/25 07:39:39;;;;;;;;;;;22.90;64.00;;;;;;5065109;28;19912;-84
2022/08/25 07:42:04;;;;;;;;;;;22.90;63.50;;;;;;5045972;28;19959;-80
2022/08/25 07:44:30;;;;;;;;;;;23.10;62.80;;;;;;5070515;28;20451;-81
2022/08/25 07:46:55;;;;;;;;;;;23.20;63.30;;;;;;5067549;28;19913;-82
2022/08/25 07:49:21;;;;;;;;;;;23.20;63.60;;;;;;5048298;28;20435;-82
2022/08/25 07:51:47;;;;;;;;;;;23.30;63.90;;;;;;5051873;28;19947;-83
2022/08/25 07:54:13;;;;;;;;;;;23.40;63.00;;;;;;5049594;28;19944;-81
2022/08/25 07:56:40;;;;;;;;;;;23.60;62.60;;;;;;5044964;28;20011;-83
2022/08/25 07:59:06;;;;;;;;;;;23.70;62.20;;;;;;5066991;28;20398;-83
2022/08/25 08:01:31;;;;;;;;;;;23.70;62.90;;;;;;5045613;28;20368;-83
2022/08/25 08:03:57;;;;;;;;;;;23.60;63.00;;;;;;5051044;28;19927;-82
2022/08/25 08:06:23;;;;;;;;;;;24.00;61.90;;;;;;5069836;28;20371;-83
2022/08/25 08:08:49;;;;;;;;;;;24.10;61.10;;;;;;5056543;28;19909;-83
2022/08/25 08:11:16;;;;;;;;;;;24.20;61.10;;;;;;5070081;28;19944;-81
2022/08/25 08:13:42;;;;;;;;;;;24.30;61.00;;;;;;5073670;28;19916;-82
2022/08/25 08:16:09;;;;;;;;;;;24.10;61.00;;;;;;5072963;28;19916;-82
2022/08/25 08:18:34;;;;;;;;;;;24.10;61.60;;;;;;5064775;28;19920;-81
2022/08/25 08:21:00;;;;;;;;;;;24.10;61.80;;;;;;5053280;28;19928;-81
2022/08/25 08:23:26;;;;;;;;;;;24.20;60.80;;;;;;5074826;28;19912;-81
2022/08/25 08:25:52;;;;;;;;;;;24.30;61.70;;;;;;5047530;28;19966;-81
2022/08/25 08:28:17;;;;;;;;;;;24.30;62.30;;;;;;5056539;28;19912;-82
2022/08/25 08:30:43;;;;;;;;;;;24.30;61.90;;;;;;5053161;28;19921;-81
2022/08/25 08:33:08;;;;;;;;;;;24.50;61.90;;;;;;5076584;28;19912;-82
2022/08/25 08:35:34;;;;;;;;;;;24.60;59.40;;;;;;5072550;28;19921;-81
2022/08/25 08:37:59;;;;;;;;;;;24.50;60.20;;;;;;5053996;28;19965;-81
2022/08/25 08:40:25;;;;;;;;;;;24.50;60.80;;;;;;5053297;28;19913;-80
2022/08/25 08:43:05;;;;;;;;;;;24.70;60.50;;;;;;5053203;28;19917;-80
2022/08/25 08:45:32;;;;;;;;;;;24.80;59.40;;;;;;5069857;28;19996;-80
2022/08/25 08:48:17;;;;;;;;;;;24.70;61.20;;;;;;5067784;28;19913;-80
2022/08/25 08:50:51;;;;;;;;;;;24.80;61.10;;;;;;5066088;28;20314;-81
2022/08/25 08:53:30;;;;;;;;;;;25.00;59.30;;;;;;5052951;28;19916;-81
2022/08/25 08:55:57;;;;;;;;;;;25.00;60.10;;;;;;5052719;28;19912;-81
2022/08/25 08:58:25;;;;;;;;;;;25.10;59.60;;;;;;5073767;28;19956;-81
2022/08/25 09:00:53;;;;;;;;;;;25.20;58.90;;;;;;5052579;28;19919;-81
2022/08/25 09:03:38;;;;;;;;;;;25.50;58.10;;;;;;5054263;28;20014;-81
2022/08/25 09:06:10;;;;;;;;;;;25.50;57.60;;;;;;5051241;28;20018;-81
2022/08/25 09:08:36;;;;;;;;;;;25.50;58.60;;;;;;5049431;28;19943;-82
2022/08/25 09:11:07;;;;;;;;;;;25.60;58.60;;;;;;5049094;28;19935;-81
2022/08/25 09:13:51;;;;;;;;;;;25.60;57.30;;;;;;5070607;28;19916;-81
2022/08/25 09:19:13;;;;;;;;;;;25.60;58.20;;;;;;5073893;28;19959;-80
2022/08/25 09:21:38;;;;;;;;;;;26.00;56.40;;;;;;5073592;28;19939;-81
2022/08/25 09:24:29;;;;;;;;;;;26.10;57.20;;;;;;5066536;28;19917;-81
2022/08/25 09:27:05;;;;;;;;;;;26.10;54.70;;;;;;5074811;28;19918;-81
2022/08/25 09:29:40;;;;;;;;;;;26.30;54.90;;;;;;5053511;28;19920;-81
2022/08/25 09:32:06;;;;;;;;;;;26.40;54.90;;;;;;5054403;28;19912;-81
2022/08/25 09:34:33;;;;;;;;;;;26.30;54.70;;;;;;5042991;28;19912;-79
2022/08/25 09:36:59;;;;;;;;;;;26.40;54.10;;;;;;5069399;28;19959;-81
2022/08/25 09:39:24;;;;;;;;;;;26.40;55.30;;;;;;5069569;28;19917;-81
2022/08/25 09:41:55;;;;;;;;;;;26.40;56.60;;;;;;5073152;28;19912;-81
2022/08/25 09:44:24;;;;;;;;;;;26.30;56.70;;;;;;5053008;28;19924;-81
2022/08/25 09:47:00;;;;;;;;;;;26.30;56.60;;;;;;5048621;28;20310;-82
2022/08/25 09:49:43;;;;;;;;;;;26.40;55.50;;;;;;5051101;28;19912;-81
2022/08/25 09:52:27;;;;;;;;;;;26.50;54.80;;;;;;5072332;28;19958;-80
2022/08/25 09:54:53;;;;;;;;;;;26.80;52.90;;;;;;5072756;28;19913;-81
2022/08/25 09:57:27;;;;;;;;;;;26.80;50.50;;;;;;5071993;28;20287;-81
2022/08/25 09:59:56;;;;;;;;;;;26.90;52.50;;;;;;5053168;28;19987;-80
2022/08/25 10:02:24;;;;;;;;;;;27.00;52.60;;;;;;5051519;28;19919;-79
2022/08/25 10:04:52;;;;;;;;;;;27.00;52.60;;;;;;5072020;28;19941;-79
2022/08/25 10:07:29;;;;;;;;;;;27.10;51.80;;;;;;5054672;28;19913;-79
2022/08/25 10:10:00;;;;;;;;;;;27.00;52.30;;;;;;5053346;28;19912;-79
2022/08/25 10:12:31;;;;;;;;;;;27.10;52.00;;;;;;5050874;28;19974;-79
2022/08/25 10:14:57;;;;;;;;;;;27.00;53.10;;;;;;5065911;28;19963;-79
2022/08/25 10:17:24;;;;;;;;;;;27.30;51.60;;;;;;5052215;28;20379;-79
2022/08/25 10:19:54;;;;;;;;;;;27.20;52.60;;;;;;5070756;28;20298;-81
2022/08/25 10:22:30;;;;;;;;;;;27.40;52.50;;;;;;5050103;28;20371;-80
2022/08/25 10:24:56;;;;;;;;;;;27.60;50.70;;;;;;5055515;28;20397;-79
2022/08/25 10:27:34;;;;;;;;;;;27.50;51.80;;;;;;5054641;28;19913;-79
2022/08/25 10:30:06;;;;;;;;;;;27.50;52.10;;;;;;5052022;28;19919;-83
2022/08/25 10:32:48;;;;;;;;;;;27.40;52.00;;;;;;5046722;28;20541;-79
2022/08/25 10:35:19;;;;;;;;;;;27.40;52.10;;;;;;5051554;28;19915;-80
2022/08/25 10:37:52;;;;;;;;;;;27.40;53.00;;;;;;5071337;28;19920;-80
2022/08/25 10:40:28;;;;;;;;;;;27.50;52.10;;;;;;5053244;28;19919;-80
2022/08/25 10:43:05;;;;;;;;;;;27.60;52.80;;;;;;5053337;28;19935;-79
2022/08/25 10:45:44;;;;;;;;;;;27.70;51.60;;;;;;5052767;28;19936;-81
2022/08/25 10:48:28;;;;;;;;;;;27.50;52.30;;;;;;5051293;28;19962;-81
2022/08/25 10:50:57;;;;;;;;;;;27.60;51.60;;;;;;5067436;28;19959;-79
2022/08/25 10:53:42;;;;;;;;;;;27.60;51.30;;;;;;5051504;28;20015;-80
2022/08/25 10:56:19;;;;;;;;;;;27.60;50.20;;;;;;5068290;28;20375;-80
2022/08/25 10:58:58;;;;;;;;;;;27.70;50.40;;;;;;5069578;28;19916;-81
2022/08/25 11:01:43;;;;;;;;;;;27.60;51.10;;;;;;5052076;28;19913;-78
2022/08/25 11:04:13;;;;;;;;;;;27.60;50.80;;;;;;5052113;28;19970;-79
2022/08/25 11:06:55;;;;;;;;;;;27.60;50.20;;;;;;5069945;28;19913;-79
2022/08/25 11:09:24;;;;;;;;;;;27.90;50.20;;;;;;5071260;28;20391;-79
2022/08/25 11:12:06;;;;;;;;;;;28.10;48.70;;;;;;5054738;28;19920;-80
2022/08/25 11:14:45;;;;;;;;;;;28.00;46.90;;;;;;5070077;28;19920;-78
2022/08/25 11:17:12;;;;;;;;;;;28.10;47.00;;;;;;5053789;28;19912;-78
2022/08/25 11:19:46;;;;;;;;;;;28.10;48.20;;;;;;5052632;28;19971;-79
2022/08/25 11:22:15;;;;;;;;;;;28.10;46.50;;;;;;5070657;28;19917;-79
2022/08/25 11:24:47;;;;;;;;;;;28.20;45.30;;;;;;5050095;28;20375;-79
2022/08/25 11:27:16;;;;;;;;;;;28.10;46.90;;;;;;5053194;28;19917;-80
2022/08/25 11:29:45;;;;;;;;;;;28.20;47.10;;;;;;5062695;28;20619;-80
2022/08/25 11:32:11;;;;;;;;;;;28.20;47.50;;;;;;5067535;28;19912;-82
2022/08/25 11:34:36;;;;;;;;;;;28.40;46.90;;;;;;5051003;28;19913;-82
2022/08/25 11:37:07;;;;;;;;;;;28.40;46.40;;;;;;5056859;28;19916;-83
2022/08/25 11:39:41;;;;;;;;;;;28.40;46.90;;;;;;5054886;28;19916;-82
2022/08/25 11:42:26;;;;;;;;;;;28.20;45.30;;;;;;5058874;28;19972;-81
2022/08/25 11:44:58;;;;;;;;;;;28.30;45.50;;;;;;5059001;28;19927;-82
2022/08/25 11:47:33;;;;;;;;;;;28.10;45.50;;;;;;5079174;28;20485;-83
2022/08/25 11:50:22;;;;;;;;;;;28.30;45.10;;;;;;5078248;28;19935;-82
2022/08/25 11:52:52;;;;;;;;;;;28.50;44.50;;;;;;5042314;28;19917;-83
2022/08/25 11:55:21;;;;;;;;;;;28.30;46.50;;;;;;5056864;28;20050;-82
2022/08/25 11:57:48;;;;;;;;;;;28.50;46.20;;;;;;5079935;28;19916;-82
2022/08/25 12:00:14;;;;;;;;;;;28.40;49.20;;;;;;5059962;28;20004;-83
2022/08/25 12:02:47;;;;;;;;;;;28.50;46.60;;;;;;5073040;28;20350;-83
2022/08/25 12:05:15;;;;;;;;;;;28.40;47.30;;;;;;5058640;28;19920;-83
2022/08/25 12:10:57;;;;;;;;;;;28.40;46.30;;;;;;5077687;28;19967;-82
2022/08/25 12:13:23;;;;;;;;;;;28.50;46.50;;;;;;5060316;28;19924;-82
2022/08/25 12:15:48;;;;;;;;;;;28.50;46.70;;;;;;5060049;28;19908;-82
2022/08/25 12:18:16;;;;;;;;;;;28.70;46.50;;;;;;5056463;28;19913;-83
2022/08/25 12:20:54;;;;;;;;;;;28.60;46.00;;;;;;5041179;28;19923;-82
2022/08/25 12:23:33;;;;;;;;;;;28.60;46.10;;;;;;5065134;28;20516;-83
2022/08/25 12:26:17;;;;;;;;;;;28.60;46.00;;;;;;5059707;28;19912;-82
2022/08/25 12:28:55;;;;;;;;;;;28.80;44.70;;;;;;5058931;28;20287;-83
2022/08/25 12:31:29;;;;;;;;;;;28.80;44.30;;;;;;5049350;28;20425;-82
2022/08/25 12:34:13;;;;;;;;;;;28.70;45.70;;;;;;5074108;28;20011;-82
2022/08/25 12:36:53;;;;;;;;;;;28.80;45.50;;;;;;5058364;28;19908;-82
2022/08/25 12:39:20;;;;;;;;;;;29.00;43.40;;;;;;5056858;28;19913;-82
2022/08/25 12:41:54;;;;;;;;;;;29.20;43.60;;;;;;5072152;28;19921;-81
2022/08/25 12:44:39;;;;;;;;;;;29.00;45.00;;;;;;5073376;28;19939;-82
2022/08/25 12:47:26;;;;;;;;;;;28.90;45.50;;;;;;5035308;28;19997;-82
2022/08/25 12:49:51;;;;;;;;;;;29.10;43.60;;;;;;5036147;28;19927;-81
2022/08/25 12:52:22;;;;;;;;;;;29.30;43.70;;;;;;5069274;28;19917;-81
2022/08/25 12:54:51;;;;;;;;;;;29.30;42.50;;;;;;5066353;28;20008;-81
2022/08/25 12:57:25;;;;;;;;;;;29.40;43.10;;;;;;5054920;28;20345;-82
2022/08/25 12:59:53;;;;;;;;;;;29.10;44.20;;;;;;5073982;28;19923;-81
2022/08/25 13:02:38;;;;;;;;;;;29.10;44.00;;;;;;5053079;28;19977;-82
2022/08/25 13:05:30;;;;;;;;;;;29.10;43.40;;;;;;5050777;28;19917;-83
2022/08/25 13:08:01;;;;;;;;;;;29.30;42.80;;;;;;5039531;28;19913;-81
2022/08/25 13:10:46;;;;;;;;;;;29.20;43.50;;;;;;5049420;28;19927;-81
2022/08/25 13:13:30;;;;;;;;;;;29.10;42.40;;;;;;5052552;28;19935;-81
2022/08/25 13:16:05;;;;;;;;;;;29.10;42.90;;;;;;5052843;28;19955;-81
2022/08/25 13:18:32;;;;;;;;;;;29.20;41.40;;;;;;5048582;28;20347;-80
2022/08/25 13:21:23;;;;;;;;;;;29.50;40.40;;;;;;5072502;28;19920;-82
2022/08/25 13:23:51;;;;;;;;;;;29.50;41.80;;;;;;5047720;28;19919;-82
2022/08/25 13:26:41;;;;;;;;;;;29.60;41.90;;;;;;5052648;28;20393;-82
2022/08/25 13:29:06;;;;;;;;;;;29.40;41.60;;;;;;5058393;28;19920;-80
2022/08/25 13:31:32;;;;;;;;;;;29.60;41.00;;;;;;5056876;28;19913;-79
2022/08/25 13:33:58;;;;;;;;;;;29.60;40.70;;;;;;5052123;28;19917;-81
2022/08/25 13:39:14;;;;;;;;;;;29.50;40.50;;;;;;5072125;28;20004;-81
2022/08/25 13:41:43;;;;;;;;;;;29.30;41.80;;;;;;5052206;28;19924;-83
2022/08/25 13:44:10;;;;;;;;;;;29.40;40.90;;;;;;5038990;28;19920;-85
2022/08/25 13:46:35;;;;;;;;;;;29.50;40.80;;;;;;5047676;28;19921;-84
2022/08/25 13:49:03;;;;;;;;;;;29.50;41.60;;;;;;5069205;28;20279;-82
2022/08/25 13:51:28;;;;;;;;;;;29.50;41.50;;;;;;5049201;28;19920;-82
2022/08/25 13:54:05;;;;;;;;;;;29.30;41.50;;;;;;5051949;28;20010;-83
2022/08/25 13:56:32;;;;;;;;;;;29.30;42.90;;;;;;5070515;28;19917;-83
2022/08/25 13:58:59;;;;;;;;;;;29.50;40.30;;;;;;5084622;22;19932;-83
2022/08/25 14:01:26;;;;;;;;;;;29.70;39.00;;;;;;5051457;28;19974;-82
2022/08/25 14:03:53;;;;;;;;;;;29.60;39.90;;;;;;5034039;28;20047;-82
2022/08/25 14:06:20;;;;;;;;;;;29.60;39.50;;;;;;5047458;28;19912;-81
2022/08/25 14:08:47;;;;;;;;;;;29.50;39.80;;;;;;5041697;28;19921;-83
2022/08/25 14:11:23;;;;;;;;;;;29.40;41.10;;;;;;5013258;28;19925;-81
2022/08/25 14:13:58;;;;;;;;;;;29.70;40.10;;;;;;5029072;28;19913;-82
2022/08/25 14:16:23;;;;;;;;;;;29.80;39.60;;;;;;5032608;28;20503;-82
2022/08/25 14:18:50;;;;;;;;;;;29.70;40.80;;;;;;5031492;28;19956;-82
2022/08/25 14:21:17;;;;;;;;;;;29.90;40.70;;;;;;5038453;28;19924;-82
2022/08/25 14:23:43;;;;;;;;;;;29.80;41.40;;;;;;5031880;28;19933;-83
2022/08/25 14:26:08;;;;;;;;;;;29.90;40.40;;;;;;5028752;28;19940;-84
2022/08/25 14:28:34;;;;;;;;;;;29.90;39.60;;;;;;5022948;28;19953;-84
2022/08/25 14:31:03;;;;;;;;;;;30.00;40.00;;;;;;5021021;28;19955;-84
2022/08/25 14:33:49;;;;;;;;;;;30.00;39.60;;;;;;5044383;28;19917;-85
2022/08/25 14:36:38;;;;;;;;;;;30.10;39.70;;;;;;5026323;28;19924;-84
2022/08/25 14:39:05;;;;;;;;;;;30.20;40.70;;;;;;5030753;28;19909;-83
2022/08/25 14:41:32;;;;;;;;;;;30.20;40.10;;;;;;5047091;28;20379;-84
2022/08/25 14:43:58;;;;;;;;;;;30.10;41.40;;;;;;5027020;28;20411;-83